createdAt,value
2023-01-10T00:03:01.263Z,43.25
2023-01-10T00:09:04.927Z,48.25
2023-01-10T00:15:07.959Z,45.75
2023-01-10T00:21:10.733Z,56.50
2023-01-10T00:27:22.371Z,39.00
2023-01-10T00:33:24.492Z,47.75
2023-01-10T00:39:28.083Z,45.50
2023-01-10T00:45:30.985Z,45.00
2023-01-10T00:51:34.251Z,49.00
2023-01-10T00:57:38.028Z,35.25
2023-01-10T01:03:41.249Z,48.25
2023-01-10T01:10:02.598Z,44.00
2023-01-10T01:16:06.010Z,51.00
2023-01-10T01:22:08.156Z,37.75
2023-01-10T01:28:14.301Z,46.50
2023-01-10T01:34:16.675Z,50.75
2023-01-10T01:40:22.501Z,29.50
2023-01-10T01:46:24.625Z,39.00
2023-01-10T01:52:32.277Z,38.00
2023-01-10T01:58:45.261Z,38.50
2023-01-10T02:04:54.258Z,48.00
2023-01-10T02:11:09.856Z,42.50
2023-01-10T02:17:14.285Z,48.75
2023-01-10T02:23:53.981Z,47.00
2023-01-10T02:30:22.502Z,66.50
2023-01-10T02:36:37.104Z,72.00
2023-01-10T02:42:52.657Z,74.25
2023-01-10T02:48:56.331Z,74.00
2023-01-10T02:55:02.547Z,60.00
2023-01-10T03:01:29.769Z,53.50
2023-01-10T03:07:51.019Z,51.50
2023-01-10T03:14:01.221Z,48.00
2023-01-10T03:20:06.332Z,90.00
2023-01-10T03:26:10.403Z,96.33
2023-01-10T03:32:17.483Z,95.33
2023-01-10T03:38:39.972Z,69.75
2023-01-10T03:45:06.024Z,51.00
2023-01-10T03:51:09.794Z,47.00
2023-01-10T03:57:23.912Z,58.75
2023-01-10T04:03:26.059Z,60.00
2023-01-10T04:09:29.700Z,45.75
2023-01-10T04:15:32.958Z,44.75
2023-01-10T04:21:37.315Z,46.67
2023-01-10T04:27:40.595Z,51.50
2023-01-10T04:33:43.846Z,73.00
2023-01-10T04:39:46.126Z,75.50
2023-01-10T04:45:49.716Z,62.75
2023-01-10T04:52:03.184Z,49.00
2023-01-10T04:58:06.541Z,61.50
2023-01-10T05:04:12.948Z,57.25
